Time;durP1;ratioP1;P1;durP2;ratioP2;P2;SDS_P1;SDS_P2;PMS_P1;PMS_P2;Temp;Humidity;BMP_temperature;BMP_pressure;BME280_temperature;BME280_humidity;BME280_pressure;Samples;Min_cycle;Max_cycle;Signal;HPM_P1;HPM_P2
2023/12/31 00:00:38;;;;;;;;;;;10.40;99.90;;;;;;7329718;19;108725;-69
2023/12/31 00:03:05;;;;;;;;;;;10.40;99.90;;;;;;7333622;19;108955;-69
2023/12/31 00:05:33;;;;;;;;;;;10.40;99.90;;;;;;7332681;19;109104;-69
2023/12/31 00:08:00;;;;;;;;;;;10.40;99.90;;;;;;7336203;19;108995;-69
2023/12/31 00:10:27;;;;;;;;;;;10.40;99.90;;;;;;7332257;19;110186;-69
2023/12/31 00:12:54;;;;;;;;;;;10.40;99.90;;;;;;7331931;19;109233;-69
2023/12/31 00:15:21;;;;;;;;;;;10.40;99.90;;;;;;7336108;19;109670;-69
2023/12/31 00:17:48;;;;;;;;;;;10.40;99.90;;;;;;7332168;19;109601;-69
2023/12/31 00:20:15;;;;;;;;;;;10.40;99.90;;;;;;7332373;19;109045;-68
2023/12/31 00:22:42;;;;;;;;;;;10.40;99.90;;;;;;7334255;19;108850;-69
2023/12/31 00:25:10;;;;;;;;;;;10.40;99.90;;;;;;7330358;19;110127;-69
2023/12/31 00:27:37;;;;;;;;;;;10.40;99.90;;;;;;7333600;19;111283;-69
2023/12/31 00:30:05;;;;;;;;;;;10.40;99.90;;;;;;7328754;19;111751;-69
2023/12/31 00:32:32;;;;;;;;;;;10.40;99.90;;;;;;7332691;19;109214;-69
2023/12/31 00:34:59;;;;;;;;;;;10.40;99.90;;;;;;7327730;19;111200;-69
2023/12/31 00:37:26;;;;;;;;;;;10.40;99.90;;;;;;7338622;19;108776;-69
2023/12/31 00:39:53;;;;;;;;;;;10.30;99.90;;;;;;7329915;19;110775;-69
2023/12/31 00:42:20;;;;;;;;;;;10.30;99.90;;;;;;7335686;19;109269;-69
2023/12/31 00:44:47;;;;;;;;;;;10.30;99.90;;;;;;7330924;19;109190;-69
2023/12/31 00:47:14;;;;;;;;;;;10.30;99.90;;;;;;7328630;19;109069;-69
2023/12/31 00:49:44;;;;;;;;;;;10.30;99.90;;;;;;7332074;19;111860;-69
2023/12/31 00:52:11;;;;;;;;;;;10.30;99.90;;;;;;7328876;19;109191;-68
2023/12/31 00:54:38;;;;;;;;;;;10.30;99.90;;;;;;7329749;19;108969;-68
2023/12/31 00:57:05;;;;;;;;;;;10.30;99.90;;;;;;7331858;19;109150;-68
2023/12/31 00:59:32;;;;;;;;;;;10.30;99.90;;;;;;7337075;19;111343;-68
2023/12/31 01:01:59;;;;;;;;;;;10.40;99.90;;;;;;7332913;19;108654;-69
2023/12/31 01:04:27;;;;;;;;;;;10.30;99.90;;;;;;7329428;19;110268;-68
2023/12/31 01:06:54;;;;;;;;;;;10.30;99.90;;;;;;7327804;19;110621;-69
2023/12/31 01:09:21;;;;;;;;;;;10.40;99.90;;;;;;7335131;19;109908;-68
2023/12/31 01:11:48;;;;;;;;;;;10.40;99.90;;;;;;7331206;19;110180;-68
2023/12/31 01:14:15;;;;;;;;;;;10.40;99.90;;;;;;7325982;19;109413;-68
2023/12/31 01:16:42;;;;;;;;;;;10.40;99.90;;;;;;7331920;19;109467;-68
2023/12/31 01:19:09;;;;;;;;;;;10.40;99.90;;;;;;7326538;19;111226;-69
2023/12/31 01:21:37;;;;;;;;;;;10.40;99.90;;;;;;7336751;19;109789;-69
2023/12/31 01:24:04;;;;;;;;;;;10.40;99.90;;;;;;7332132;19;110212;-69
2023/12/31 01:26:31;;;;;;;;;;;10.30;99.90;;;;;;7328525;19;108754;-69
2023/12/31 01:28:58;;;;;;;;;;;10.30;99.90;;;;;;7329443;19;115344;-69
2023/12/31 01:31:25;;;;;;;;;;;10.40;99.90;;;;;;7327999;19;109863;-70
2023/12/31 01:33:52;;;;;;;;;;;10.30;99.90;;;;;;7332025;19;109612;-69
2023/12/31 01:36:24;;;;;;;;;;;10.30;99.90;;;;;;7330101;19;108806;-69
2023/12/31 01:38:51;;;;;;;;;;;10.30;99.90;;;;;;7330622;19;110079;-70
2023/12/31 01:41:18;;;;;;;;;;;10.30;99.90;;;;;;7340092;19;108299;-69
2023/12/31 01:43:46;;;;;;;;;;;10.30;99.90;;;;;;7336210;19;109606;-68
2023/12/31 01:46:22;;;;;;;;;;;10.30;99.90;;;;;;7335383;19;109894;-70
2023/12/31 01:48:50;;;;;;;;;;;10.30;99.90;;;;;;7336286;19;108747;-69
2023/12/31 01:51:18;;;;;;;;;;;10.30;99.90;;;;;;7334033;19;109138;-72
2023/12/31 01:53:49;;;;;;;;;;;10.30;99.90;;;;;;7338031;19;108690;-69
2023/12/31 01:56:17;;;;;;;;;;;10.30;99.90;;;;;;7337279;19;111017;-69
2023/12/31 01:58:44;;;;;;;;;;;10.20;99.90;;;;;;7338782;19;109401;-69
2023/12/31 02:01:12;;;;;;;;;;;10.30;99.90;;;;;;7340252;19;108786;-69
2023/12/31 02:03:39;;;;;;;;;;;10.30;99.90;;;;;;7340362;19;108981;-67
2023/12/31 02:06:10;;;;;;;;;;;10.20;99.90;;;;;;7338278;19;108480;-67
2023/12/31 02:08:38;;;;;;;;;;;10.20;99.90;;;;;;7338446;19;112082;-70
2023/12/31 02:11:07;;;;;;;;;;;10.20;99.90;;;;;;7333132;19;110154;-68
2023/12/31 02:13:34;;;;;;;;;;;10.20;99.90;;;;;;7338280;19;108892;-70
2023/12/31 02:16:01;;;;;;;;;;;10.20;99.90;;;;;;7333264;19;109142;-69
2023/12/31 02:18:32;;;;;;;;;;;10.20;99.90;;;;;;7340129;19;110721;-68
2023/12/31 02:20:59;;;;;;;;;;;10.20;99.90;;;;;;7337118;19;109044;-70
2023/12/31 02:23:27;;;;;;;;;;;10.20;99.90;;;;;;7335992;19;108233;-70
2023/12/31 02:26:10;;;;;;;;;;;10.10;99.90;;;;;;7344406;19;109135;-70
2023/12/31 02:28:38;;;;;;;;;;;10.20;99.90;;;;;;7338088;19;108433;-71
2023/12/31 02:31:05;;;;;;;;;;;10.10;99.90;;;;;;7335565;19;109647;-71
2023/12/31 02:33:33;;;;;;;;;;;10.10;99.90;;;;;;7343384;19;108980;-71
2023/12/31 02:36:00;;;;;;;;;;;10.10;99.90;;;;;;7339829;19;109022;-69
2023/12/31 02:38:28;;;;;;;;;;;10.10;99.90;;;;;;7335882;19;109194;-69
2023/12/31 02:40:55;;;;;;;;;;;10.10;99.90;;;;;;7338343;19;108513;-69
2023/12/31 02:43:22;;;;;;;;;;;10.00;99.90;;;;;;7339041;19;109118;-70
2023/12/31 02:45:49;;;;;;;;;;;10.00;99.90;;;;;;7336166;19;110135;-70
2023/12/31 02:48:17;;;;;;;;;;;10.00;99.90;;;;;;7340241;19;109771;-70
2023/12/31 02:50:44;;;;;;;;;;;9.90;99.90;;;;;;7335304;19;111557;-69
2023/12/31 02:53:11;;;;;;;;;;;9.90;99.90;;;;;;7336576;19;114671;-70
2023/12/31 02:55:38;;;;;;;;;;;9.90;99.90;;;;;;7336700;19;108635;-70
2023/12/31 02:58:05;;;;;;;;;;;10.00;99.90;;;;;;7335915;19;110077;-74
2023/12/31 03:00:32;;;;;;;;;;;9.90;99.90;;;;;;7337583;19;108831;-70
2023/12/31 03:02:59;;;;;;;;;;;10.00;99.90;;;;;;7336976;19;108851;-70
2023/12/31 03:05:27;;;;;;;;;;;10.00;99.90;;;;;;7333258;19;109369;-73
2023/12/31 03:07:54;;;;;;;;;;;10.00;99.90;;;;;;7336616;19;109617;-69
2023/12/31 03:10:21;;;;;;;;;;;9.90;99.90;;;;;;7344336;19;109969;-70
2023/12/31 03:12:48;;;;;;;;;;;10.00;99.90;;;;;;7336036;19;109454;-69
2023/12/31 03:15:15;;;;;;;;;;;10.00;99.90;;;;;;7335831;19;109222;-68
2023/12/31 03:17:42;;;;;;;;;;;9.90;99.90;;;;;;7332734;19;110343;-68
2023/12/31 03:20:10;;;;;;;;;;;9.90;99.90;;;;;;7336590;19;109822;-69
2023/12/31 03:22:37;;;;;;;;;;;9.90;99.90;;;;;;7332712;19;110656;-69
2023/12/31 03:25:09;;;;;;;;;;;9.90;99.90;;;;;;7333177;19;110014;-69
2023/12/31 03:27:36;;;;;;;;;;;9.90;99.90;;;;;;7335366;19;109766;-74
2023/12/31 03:30:03;;;;;;;;;;;9.90;99.90;;;;;;7334283;19;108541;-74
2023/12/31 03:32:30;;;;;;;;;;;9.80;99.90;;;;;;7339432;19;109935;-72
2023/12/31 03:34:58;;;;;;;;;;;9.80;99.90;;;;;;7335044;19;110713;-77
2023/12/31 03:37:25;;;;;;;;;;;9.80;99.90;;;;;;7334425;19;111338;-70
2023/12/31 03:39:54;;;;;;;;;;;9.80;99.90;;;;;;7330109;19;108865;-74
2023/12/31 03:42:21;;;;;;;;;;;9.80;99.90;;;;;;7328378;19;110520;-70
2023/12/31 03:44:49;;;;;;;;;;;9.80;99.90;;;;;;7332922;19;110634;-69
2023/12/31 03:47:16;;;;;;;;;;;9.80;99.90;;;;;;7328506;19;108470;-69
2023/12/31 03:49:43;;;;;;;;;;;9.80;99.90;;;;;;7332346;19;109659;-68
2023/12/31 03:52:10;;;;;;;;;;;9.70;99.90;;;;;;7335292;19;109584;-69
2023/12/31 03:54:41;;;;;;;;;;;9.70;99.90;;;;;;7330046;19;109906;-69
2023/12/31 04:00:00;;;;;;;;;;;9.80;99.90;;;;;;7306897;19;108331;-67
2023/12/31 04:02:27;;;;;;;;;;;9.70;99.90;;;;;;7327016;19;110361;-67
2023/12/31 04:04:54;;;;;;;;;;;9.70;99.90;;;;;;7331436;19;109705;-70
2023/12/31 04:07:21;;;;;;;;;;;9.70;99.90;;;;;;7330935;19;109291;-67
2023/12/31 04:09:48;;;;;;;;;;;9.70;99.90;;;;;;7332390;19;109279;-68
2023/12/31 04:12:15;;;;;;;;;;;9.70;99.90;;;;;;7326234;19;109912;-68
2023/12/31 04:14:42;;;;;;;;;;;9.70;99.90;;;;;;7337069;19;109278;-68
2023/12/31 04:17:09;;;;;;;;;;;9.80;99.90;;;;;;7328474;19;109901;-68
2023/12/31 04:19:37;;;;;;;;;;;9.80;99.90;;;;;;7331832;19;109383;-68
2023/12/31 04:22:04;;;;;;;;;;;9.80;99.90;;;;;;7329894;19;109126;-68
2023/12/31 04:24:31;;;;;;;;;;;9.80;99.90;;;;;;7332141;19;110927;-68
2023/12/31 04:26:58;;;;;;;;;;;9.80;99.90;;;;;;7328994;19;109083;-68
2023/12/31 04:29:25;;;;;;;;;;;9.80;99.90;;;;;;7332562;19;109467;-68
2023/12/31 04:31:52;;;;;;;;;;;9.80;99.90;;;;;;7329955;19;110176;-68
2023/12/31 04:34:21;;;;;;;;;;;9.90;99.90;;;;;;7331228;19;108893;-68
2023/12/31 04:36:48;;;;;;;;;;;9.90;99.90;;;;;;7336074;19;109255;-68
2023/12/31 04:39:15;;;;;;;;;;;9.90;99.90;;;;;;7329317;19;109602;-68
2023/12/31 04:41:42;;;;;;;;;;;9.90;99.90;;;;;;7326957;19;108826;-69
2023/12/31 04:44:09;;;;;;;;;;;9.90;99.90;;;;;;7328829;19;109220;-68
2023/12/31 04:46:36;;;;;;;;;;;9.90;99.90;;;;;;7330965;19;110993;-69
2023/12/31 04:49:04;;;;;;;;;;;10.00;99.90;;;;;;7325756;19;110732;-68
2023/12/31 04:51:31;;;;;;;;;;;10.00;99.90;;;;;;7332197;19;109093;-68
2023/12/31 04:53:58;;;;;;;;;;;10.00;99.90;;;;;;7328136;19;108953;-68
2023/12/31 04:56:26;;;;;;;;;;;10.00;99.90;;;;;;7332076;19;110845;-68
2023/12/31 04:58:54;;;;;;;;;;;10.00;99.90;;;;;;7334460;19;109570;-68
2023/12/31 05:01:43;;;;;;;;;;;10.10;99.90;;;;;;7330091;19;108991;-68
2023/12/31 05:04:09;;;;;;;;;;;10.10;99.90;;;;;;7325723;19;110142;-68
2023/12/31 05:06:36;;;;;;;;;;;10.10;99.90;;;;;;7331346;19;109190;-68
2023/12/31 05:09:08;;;;;;;;;;;10.10;99.90;;;;;;7330363;19;109384;-68
2023/12/31 05:11:35;;;;;;;;;;;10.10;99.90;;;;;;7327111;19;111766;-68
2023/12/31 05:14:02;;;;;;;;;;;10.10;99.90;;;;;;7326446;19;108492;-68
2023/12/31 05:16:32;;;;;;;;;;;10.20;99.90;;;;;;7330776;19;109111;-69
2023/12/31 05:19:00;;;;;;;;;;;10.20;99.90;;;;;;7337508;19;109141;-69
2023/12/31 05:21:28;;;;;;;;;;;10.20;99.90;;;;;;7340663;19;111052;-69
2023/12/31 05:23:55;;;;;;;;;;;10.20;99.90;;;;;;7337393;19;109704;-68
2023/12/31 05:26:22;;;;;;;;;;;10.20;99.90;;;;;;7333520;19;108714;-68
2023/12/31 05:28:49;;;;;;;;;;;10.20;99.90;;;;;;7338852;19;109399;-69
2023/12/31 05:31:16;;;;;;;;;;;10.30;99.90;;;;;;7334918;19;110466;-69
2023/12/31 05:33:44;;;;;;;;;;;10.20;99.90;;;;;;7337446;19;109373;-69
2023/12/31 05:36:11;;;;;;;;;;;10.30;99.90;;;;;;7337791;19;108525;-69
2023/12/31 05:38:38;;;;;;;;;;;10.30;99.90;;;;;;7337309;19;110292;-69
2023/12/31 05:41:05;;;;;;;;;;;10.20;99.90;;;;;;7335947;19;109290;-72
2023/12/31 05:43:33;;;;;;;;;;;10.20;99.90;;;;;;7342459;19;109291;-69
2023/12/31 05:46:00;;;;;;;;;;;10.20;99.90;;;;;;7335621;19;109276;-69
2023/12/31 05:48:28;;;;;;;;;;;10.20;99.90;;;;;;7334436;19;108988;-69
2023/12/31 05:50:56;;;;;;;;;;;10.30;99.90;;;;;;7334736;19;109454;-69
2023/12/31 05:53:23;;;;;;;;;;;10.20;99.90;;;;;;7329716;19;110043;-69
2023/12/31 05:55:50;;;;;;;;;;;10.20;99.90;;;;;;7336954;19;109726;-69
2023/12/31 05:58:17;;;;;;;;;;;10.20;99.90;;;;;;7332727;19;109185;-69
2023/12/31 06:00:44;;;;;;;;;;;10.30;99.90;;;;;;7332234;19;108954;-69
2023/12/31 06:03:12;;;;;;;;;;;10.30;99.90;;;;;;7339899;19;108943;-69
2023/12/31 06:05:39;;;;;;;;;;;10.30;99.90;;;;;;7331155;19;108828;-68
2023/12/31 06:08:06;;;;;;;;;;;10.30;99.90;;;;;;7333601;19;112708;-69
2023/12/31 06:10:33;;;;;;;;;;;10.40;99.90;;;;;;7333491;19;110651;-69
2023/12/31 06:13:01;;;;;;;;;;;10.30;99.90;;;;;;7335983;19;113380;-69
2023/12/31 06:15:29;;;;;;;;;;;10.40;99.90;;;;;;7333942;19;108726;-69
2023/12/31 06:17:56;;;;;;;;;;;10.40;99.90;;;;;;7334955;19;112219;-69
2023/12/31 06:20:23;;;;;;;;;;;10.40;99.90;;;;;;7333994;19;109512;-69
2023/12/31 06:22:50;;;;;;;;;;;10.40;99.90;;;;;;7332722;19;111127;-69
2023/12/31 06:25:17;;;;;;;;;;;10.40;99.90;;;;;;7338138;19;109751;-70
2023/12/31 06:27:44;;;;;;;;;;;10.40;99.90;;;;;;7335097;19;109557;-69
2023/12/31 06:30:13;;;;;;;;;;;10.40;99.90;;;;;;7334457;19;110308;-69
2023/12/31 06:32:40;;;;;;;;;;;10.40;99.90;;;;;;7336911;19;108831;-69
2023/12/31 06:35:08;;;;;;;;;;;10.40;99.90;;;;;;7335855;19;109705;-69
2023/12/31 06:37:35;;;;;;;;;;;10.50;99.90;;;;;;7335938;19;109600;-69
2023/12/31 06:40:04;;;;;;;;;;;10.50;99.90;;;;;;7334177;19;108922;-69
2023/12/31 06:42:31;;;;;;;;;;;10.50;99.90;;;;;;7335652;19;109987;-69
2023/12/31 06:44:59;;;;;;;;;;;10.60;99.90;;;;;;7331090;19;110331;-69
2023/12/31 06:47:26;;;;;;;;;;;10.60;99.90;;;;;;7337520;19;109898;-70
2023/12/31 06:49:53;;;;;;;;;;;10.60;99.90;;;;;;7334817;19;109839;-69
2023/12/31 06:52:20;;;;;;;;;;;10.60;99.90;;;;;;7335032;19;108679;-71
2023/12/31 06:54:47;;;;;;;;;;;10.60;99.90;;;;;;7334149;19;108874;-69
2023/12/31 06:57:14;;;;;;;;;;;10.60;99.90;;;;;;7331409;19;111249;-72
2023/12/31 06:59:42;;;;;;;;;;;10.70;99.90;;;;;;7333699;19;110555;-69
2023/12/31 07:02:09;;;;;;;;;;;10.70;99.90;;;;;;7327132;19;108751;-69
2023/12/31 07:04:36;;;;;;;;;;;10.70;99.90;;;;;;7331970;19;109736;-69
2023/12/31 07:07:03;;;;;;;;;;;10.70;99.90;;;;;;7330601;19;109219;-69
2023/12/31 07:09:32;;;;;;;;;;;10.70;99.90;;;;;;7333831;19;110579;-68
2023/12/31 07:11:59;;;;;;;;;;;10.70;99.90;;;;;;7331052;19;110530;-69
2023/12/31 07:14:27;;;;;;;;;;;10.70;99.90;;;;;;7333617;19;108907;-68
2023/12/31 07:16:55;;;;;;;;;;;10.70;99.90;;;;;;7333611;19;109225;-69
2023/12/31 07:19:22;;;;;;;;;;;10.80;99.90;;;;;;7334947;19;108942;-68
2023/12/31 07:21:49;;;;;;;;;;;10.80;99.90;;;;;;7335247;19;108880;-68
2023/12/31 07:24:16;;;;;;;;;;;10.80;99.90;;;;;;7329145;19;110129;-69
2023/12/31 07:26:43;;;;;;;;;;;10.80;99.90;;;;;;7332337;19;109095;-69
2023/12/31 07:29:10;;;;;;;;;;;10.90;99.90;;;;;;7329592;19;111709;-71
2023/12/31 07:31:38;;;;;;;;;;;10.90;99.90;;;;;;7338817;19;110224;-69
2023/12/31 07:34:06;;;;;;;;;;;11.00;99.90;;;;;;7333017;19;111177;-70
2023/12/31 07:36:34;;;;;;;;;;;11.00;99.90;;;;;;7334105;19;109441;-72
2023/12/31 07:39:03;;;;;;;;;;;11.10;99.90;;;;;;7330625;19;108721;-77
2023/12/31 07:41:31;;;;;;;;;;;11.10;99.90;;;;;;7338084;19;109033;-70
2023/12/31 07:43:58;;;;;;;;;;;11.20;99.90;;;;;;7333412;19;109824;-73
2023/12/31 07:46:25;;;;;;;;;;;11.20;99.90;;;;;;7336322;19;108687;-76
2023/12/31 07:48:53;;;;;;;;;;;11.20;99.90;;;;;;7336488;19;109099;-72
2023/12/31 07:51:20;;;;;;;;;;;11.30;99.90;;;;;;7334668;19;111000;-72
2023/12/31 07:53:47;;;;;;;;;;;11.30;99.90;;;;;;7336084;19;108619;-71
2023/12/31 07:56:14;;;;;;;;;;;11.30;99.90;;;;;;7331553;19;109668;-70
2023/12/31 07:58:41;;;;;;;;;;;11.30;99.90;;;;;;7334721;19;108983;-78
2023/12/31 08:01:08;;;;;;;;;;;11.40;99.90;;;;;;7332542;19;109314;-69
2023/12/31 08:03:36;;;;;;;;;;;11.30;99.90;;;;;;7330656;19;110553;-70
2023/12/31 08:06:03;;;;;;;;;;;11.40;99.90;;;;;;7331238;19;109666;-69
2023/12/31 08:08:31;;;;;;;;;;;11.40;99.90;;;;;;7333612;19;111400;-69
2023/12/31 08:11:01;;;;;;;;;;;11.40;99.90;;;;;;7331558;19;108989;-68
2023/12/31 08:13:30;;;;;;;;;;;11.50;99.90;;;;;;7340982;19;108889;-68
2023/12/31 08:15:57;;;;;;;;;;;11.40;99.90;;;;;;7330656;19;110532;-69
2023/12/31 08:18:25;;;;;;;;;;;11.40;99.90;;;;;;7332019;19;108697;-69
2023/12/31 08:20:52;;;;;;;;;;;11.40;99.90;;;;;;7330116;19;110106;-68
2023/12/31 08:23:19;;;;;;;;;;;11.40;99.90;;;;;;7333724;19;109437;-68
2023/12/31 08:25:46;;;;;;;;;;;11.40;99.90;;;;;;7330333;19;108890;-68
2023/12/31 08:28:14;;;;;;;;;;;11.40;99.90;;;;;;7332094;19;108701;-68
2023/12/31 08:30:41;;;;;;;;;;;11.40;99.90;;;;;;7332857;19;111378;-68
2023/12/31 08:33:08;;;;;;;;;;;11.40;99.90;;;;;;7334143;19;108360;-68
2023/12/31 08:35:35;;;;;;;;;;;11.40;99.90;;;;;;7334145;19;109211;-68
2023/12/31 08:38:02;;;;;;;;;;;11.40;99.90;;;;;;7332255;19;108889;-68
2023/12/31 08:40:30;;;;;;;;;;;11.30;99.90;;;;;;7332213;19;109067;-68
2023/12/31 08:42:57;;;;;;;;;;;11.30;99.90;;;;;;7331251;19;111719;-68
2023/12/31 08:45:24;;;;;;;;;;;11.30;99.90;;;;;;7334094;19;108454;-70
2023/12/31 08:47:52;;;;;;;;;;;11.30;99.90;;;;;;7329983;19;109136;-69
2023/12/31 08:50:20;;;;;;;;;;;11.30;99.90;;;;;;7330788;19;109172;-67
2023/12/31 08:52:47;;;;;;;;;;;11.20;99.90;;;;;;7330032;19;110904;-68
2023/12/31 08:55:16;;;;;;;;;;;11.30;99.90;;;;;;7331228;19;108766;-69
2023/12/31 08:57:46;;;;;;;;;;;11.20;99.90;;;;;;7337500;19;110305;-68
2023/12/31 09:00:13;;;;;;;;;;;11.30;99.90;;;;;;7331383;19;109976;-68
2023/12/31 09:02:40;;;;;;;;;;;11.20;99.90;;;;;;7334186;19;109677;-68
2023/12/31 09:05:08;;;;;;;;;;;11.30;99.90;;;;;;7329807;19;108620;-68
2023/12/31 09:07:35;;;;;;;;;;;11.20;99.90;;;;;;7332178;19;108621;-68
2023/12/31 09:10:03;;;;;;;;;;;11.30;99.90;;;;;;7334105;19;110126;-68
2023/12/31 09:12:31;;;;;;;;;;;11.30;99.90;;;;;;7329801;19;109279;-68
2023/12/31 09:14:58;;;;;;;;;;;11.20;99.90;;;;;;7329691;19;109214;-69
2023/12/31 09:17:25;;;;;;;;;;;11.20;99.90;;;;;;7329775;19;109090;-68
2023/12/31 09:19:58;;;;;;;;;;;11.20;99.90;;;;;;7333608;19;110320;-68
2023/12/31 09:22:26;;;;;;;;;;;11.20;99.90;;;;;;7328952;19;110862;-69
2023/12/31 09:24:53;;;;;;;;;;;11.20;99.90;;;;;;7330835;19;108870;-68
2023/12/31 09:27:20;;;;;;;;;;;11.20;99.90;;;;;;7329877;19;109333;-69
2023/12/31 09:29:47;;;;;;;;;;;11.20;99.90;;;;;;7328335;19;109872;-68
2023/12/31 09:32:14;;;;;;;;;;;11.20;99.90;;;;;;7327708;19;109227;-68
2023/12/31 09:34:41;;;;;;;;;;;11.20;99.90;;;;;;7327282;19;109085;-68
2023/12/31 09:37:08;;;;;;;;;;;11.20;99.90;;;;;;7324542;19;109602;-68
2023/12/31 09:39:36;;;;;;;;;;;11.30;99.90;;;;;;7327750;19;111123;-69
2023/12/31 09:42:13;;;;;;;;;;;11.30;99.90;;;;;;7337426;19;111739;-68
2023/12/31 09:44:40;;;;;;;;;;;11.20;99.90;;;;;;7331145;19;108521;-69
2023/12/31 09:47:08;;;;;;;;;;;11.20;99.90;;;;;;7329525;19;108976;-69
2023/12/31 09:49:39;;;;;;;;;;;11.30;99.90;;;;;;7331382;19;109073;-67
2023/12/31 09:52:08;;;;;;;;;;;11.30;99.90;;;;;;7330396;19;108657;-68
2023/12/31 09:54:40;;;;;;;;;;;11.20;99.90;;;;;;7331678;19;109401;-68
2023/12/31 09:57:08;;;;;;;;;;;11.20;99.90;;;;;;7328501;19;109964;-68
2023/12/31 09:59:41;;;;;;;;;;;11.20;99.90;;;;;;7334180;19;108929;-68
2023/12/31 10:02:12;;;;;;;;;;;11.20;99.90;;;;;;7335165;19;109813;-70
2023/12/31 10:04:40;;;;;;;;;;;11.10;99.90;;;;;;7336063;19;109593;-67
2023/12/31 10:07:07;;;;;;;;;;;11.10;99.90;;;;;;7336698;19;108768;-67
2023/12/31 10:09:35;;;;;;;;;;;11.10;99.90;;;;;;7338332;19;109451;-67
2023/12/31 10:12:02;;;;;;;;;;;11.10;99.90;;;;;;7334480;19;109870;-67
2023/12/31 10:14:29;;;;;;;;;;;11.10;99.90;;;;;;7337799;19;109124;-68
2023/12/31 10:16:57;;;;;;;;;;;11.20;99.90;;;;;;7338228;19;109856;-68
2023/12/31 10:19:24;;;;;;;;;;;11.20;99.90;;;;;;7336277;19;110948;-70
2023/12/31 10:21:52;;;;;;;;;;;11.20;99.90;;;;;;7332174;19;109605;-69
2023/12/31 10:24:25;;;;;;;;;;;11.20;99.90;;;;;;7339117;19;109798;-68
2023/12/31 10:27:00;;;;;;;;;;;11.20;99.90;;;;;;7337369;19;109915;-68
2023/12/31 10:29:28;;;;;;;;;;;11.20;99.90;;;;;;7334493;19;110466;-68
2023/12/31 10:31:55;;;;;;;;;;;11.20;99.90;;;;;;7337292;19;108929;-67
2023/12/31 10:34:23;;;;;;;;;;;11.20;99.90;;;;;;7335232;19;108799;-68
2023/12/31 10:36:59;;;;;;;;;;;11.20;99.90;;;;;;7332499;19;109169;-68
2023/12/31 10:39:27;;;;;;;;;;;11.20;99.90;;;;;;7335511;19;108507;-68
2023/12/31 10:41:56;;;;;;;;;;;11.20;99.90;;;;;;7337555;19;109342;-68
2023/12/31 10:44:23;;;;;;;;;;;11.20;99.90;;;;;;7333314;19;111255;-67
2023/12/31 10:46:52;;;;;;;;;;;11.20;99.90;;;;;;7342766;19;109048;-68
2023/12/31 10:49:21;;;;;;;;;;;11.20;99.90;;;;;;7332556;19;109115;-68
2023/12/31 10:51:52;;;;;;;;;;;11.20;99.90;;;;;;7333750;19;115213;-68
2023/12/31 10:54:31;;;;;;;;;;;11.20;99.90;;;;;;7333336;19;109502;-68
2023/12/31 10:56:58;;;;;;;;;;;11.20;99.90;;;;;;7333615;19;111197;-68
2023/12/31 10:59:26;;;;;;;;;;;11.20;99.90;;;;;;7334818;19;109455;-67
2023/12/31 11:01:54;;;;;;;;;;;11.20;99.90;;;;;;7335287;19;109036;-68
2023/12/31 11:04:23;;;;;;;;;;;11.30;99.90;;;;;;7333803;19;109320;-68
2023/12/31 11:06:51;;;;;;;;;;;11.20;99.90;;;;;;7332512;19;110102;-68
2023/12/31 11:09:18;;;;;;;;;;;11.20;99.90;;;;;;7339195;19;108860;-68
2023/12/31 11:11:45;;;;;;;;;;;11.20;99.90;;;;;;7335798;19;108785;-68
2023/12/31 11:14:14;;;;;;;;;;;11.10;99.90;;;;;;7332470;19;109613;-68
2023/12/31 11:16:50;;;;;;;;;;;11.10;99.90;;;;;;7334889;19;109264;-68
2023/12/31 11:19:31;;;;;;;;;;;11.00;99.90;;;;;;7334787;19;109584;-68
2023/12/31 11:22:08;;;;;;;;;;;10.90;99.90;;;;;;7333916;19;109026;-68
2023/12/31 11:24:38;;;;;;;;;;;10.90;99.90;;;;;;7332919;19;110383;-68
2023/12/31 11:27:07;;;;;;;;;;;10.90;99.90;;;;;;7334586;19;110099;-68
2023/12/31 11:29:34;;;;;;;;;;;10.90;99.90;;;;;;7333253;19;109704;-68
2023/12/31 11:32:02;;;;;;;;;;;10.80;99.90;;;;;;7339294;19;109804;-68
2023/12/31 11:34:35;;;;;;;;;;;10.80;99.90;;;;;;7336320;19;109792;-68
2023/12/31 11:37:04;;;;;;;;;;;10.80;99.90;;;;;;7331121;19;109432;-70
2023/12/31 11:39:32;;;;;;;;;;;10.80;99.90;;;;;;7333070;19;110836;-70
2023/12/31 11:42:12;;;;;;;;;;;10.80;99.90;;;;;;7337741;19;108397;-71
2023/12/31 11:44:40;;;;;;;;;;;10.80;99.90;;;;;;7333729;19;110289;-68
2023/12/31 11:47:16;;;;;;;;;;;10.80;99.90;;;;;;7333345;19;109110;-69
2023/12/31 11:49:46;;;;;;;;;;;10.80;99.90;;;;;;7334828;19;112386;-69
2023/12/31 11:52:14;;;;;;;;;;;10.80;99.90;;;;;;7333972;19;110043;-69
2023/12/31 11:54:43;;;;;;;;;;;10.80;99.90;;;;;;7337375;19;110661;-76
2023/12/31 11:57:10;;;;;;;;;;;10.80;99.90;;;;;;7331211;19;109711;-75
2023/12/31 11:59:38;;;;;;;;;;;10.80;99.90;;;;;;7331855;19;108875;-73
2023/12/31 12:02:06;;;;;;;;;;;10.80;99.90;;;;;;7329804;19;109165;-74
2023/12/31 12:04:34;;;;;;;;;;;10.90;99.90;;;;;;7332230;19;109118;-72
2023/12/31 12:07:01;;;;;;;;;;;10.80;99.90;;;;;;7329303;19;109517;-72
2023/12/31 12:09:29;;;;;;;;;;;10.80;99.90;;;;;;7330581;19;109608;-76
2023/12/31 12:11:57;;;;;;;;;;;10.90;99.90;;;;;;7328407;19;109796;-74
2023/12/31 12:14:25;;;;;;;;;;;10.90;99.90;;;;;;7336200;19;108523;-69
2023/12/31 12:16:53;;;;;;;;;;;10.90;99.90;;;;;;7329585;19;110487;-72
2023/12/31 12:19:21;;;;;;;;;;;10.90;99.90;;;;;;7330305;19;108891;-68
2023/12/31 12:21:48;;;;;;;;;;;10.80;99.90;;;;;;7325957;19;109427;-69
2023/12/31 12:24:17;;;;;;;;;;;10.80;99.90;;;;;;7329299;19;109074;-69
2023/12/31 12:26:46;;;;;;;;;;;10.90;99.90;;;;;;7326026;19;112068;-68
2023/12/31 12:29:15;;;;;;;;;;;10.90;99.90;;;;;;7336006;19;113266;-68
2023/12/31 12:31:45;;;;;;;;;;;10.90;99.90;;;;;;7330939;19;109713;-68
2023/12/31 12:34:16;;;;;;;;;;;10.90;99.90;;;;;;7330914;19;109142;-72
2023/12/31 12:36:43;;;;;;;;;;;11.00;99.90;;;;;;7337052;19;109440;-76
2023/12/31 12:39:17;;;;;;;;;;;11.00;99.90;;;;;;7332496;19;108524;-69
2023/12/31 12:41:45;;;;;;;;;;;11.00;99.90;;;;;;7331213;19;108777;-77
2023/12/31 12:44:13;;;;;;;;;;;11.10;99.90;;;;;;7333922;19;112661;-70
2023/12/31 12:49:18;;;;;;;;;;;11.10;99.90;;;;;;7329564;19;109577;-70
2023/12/31 12:51:46;;;;;;;;;;;11.10;99.90;;;;;;7329816;19;109591;-70
2023/12/31 12:54:13;;;;;;;;;;;11.10;99.90;;;;;;7324366;19;108844;-69
2023/12/31 12:56:40;;;;;;;;;;;11.10;99.90;;;;;;7329847;19;108838;-69
2023/12/31 12:59:08;;;;;;;;;;;11.10;99.90;;;;;;7332878;19;110880;-69
2023/12/31 13:01:36;;;;;;;;;;;11.10;99.90;;;;;;7328999;19;109315;-70
2023/12/31 13:04:10;;;;;;;;;;;11.10;99.90;;;;;;7333008;19;111395;-70
2023/12/31 13:06:38;;;;;;;;;;;11.10;99.90;;;;;;7329517;19;110451;-69
2023/12/31 13:09:06;;;;;;;;;;;11.10;99.90;;;;;;7329184;19;108605;-69
2023/12/31 13:11:34;;;;;;;;;;;11.10;99.90;;;;;;7330611;19;111315;-69
2023/12/31 13:14:01;;;;;;;;;;;11.20;99.90;;;;;;7325761;19;109805;-69
2023/12/31 13:16:28;;;;;;;;;;;11.20;99.90;;;;;;7328997;19;112103;-69
2023/12/31 13:19:13;;;;;;;;;;;11.10;99.90;;;;;;7328406;19;110127;-69
2023/12/31 13:21:40;;;;;;;;;;;11.20;99.90;;;;;;7333197;19;109666;-69
2023/12/31 13:24:07;;;;;;;;;;;11.20;99.90;;;;;;7324578;19;109090;-69
2023/12/31 13:26:34;;;;;;;;;;;11.20;99.90;;;;;;7324681;19;109136;-69
2023/12/31 13:29:01;;;;;;;;;;;11.30;99.90;;;;;;7324741;19;110888;-69
2023/12/31 13:31:31;;;;;;;;;;;11.20;99.90;;;;;;7326514;19;110634;-70
2023/12/31 13:33:58;;;;;;;;;;;11.30;99.90;;;;;;7328770;19;110405;-69
2023/12/31 13:36:25;;;;;;;;;;;11.30;99.90;;;;;;7327515;19;109343;-69
2023/12/31 13:38:52;;;;;;;;;;;11.30;99.90;;;;;;7334940;19;110345;-70
2023/12/31 13:41:19;;;;;;;;;;;11.30;99.90;;;;;;7334810;19;110458;-70
2023/12/31 13:43:50;;;;;;;;;;;11.30;99.90;;;;;;7340549;19;109329;-69
2023/12/31 13:46:17;;;;;;;;;;;11.30;99.90;;;;;;7335709;19;109143;-69
2023/12/31 13:48:45;;;;;;;;;;;11.30;99.90;;;;;;7333254;19;109253;-70
2023/12/31 13:51:12;;;;;;;;;;;11.30;99.90;;;;;;7337087;19;110348;-69
2023/12/31 13:53:39;;;;;;;;;;;11.40;99.90;;;;;;7334013;19;110300;-69
2023/12/31 13:56:06;;;;;;;;;;;11.30;99.90;;;;;;7336817;19;109390;-69
2023/12/31 13:58:33;;;;;;;;;;;11.30;99.90;;;;;;7333704;19;110570;-69
2023/12/31 14:01:01;;;;;;;;;;;11.30;99.90;;;;;;7335118;19;108978;-69
2023/12/31 14:03:28;;;;;;;;;;;11.30;99.90;;;;;;7333056;19;108826;-69
2023/12/31 14:05:55;;;;;;;;;;;11.30;99.90;;;;;;7341178;19;109207;-69
2023/12/31 14:08:22;;;;;;;;;;;11.30;99.90;;;;;;7337794;19;109383;-70
2023/12/31 14:10:50;;;;;;;;;;;11.30;99.90;;;;;;7333200;19;109502;-70
2023/12/31 14:13:18;;;;;;;;;;;11.30;99.90;;;;;;7335955;19;109616;-69
2023/12/31 14:15:45;;;;;;;;;;;11.30;99.90;;;;;;7335085;19;108935;-69